sensor_id;sensor_type;location;lat;lon;timestamp;P1;durP1;ratioP1;P2;durP2;ratioP2
68947;SDS011;55996;49.546;7.400;2022-12-01T00:01:05;8.77;;;7.33;;
68947;SDS011;55996;49.546;7.400;2022-12-01T00:03:31;10.97;;;8.57;;
68947;SDS011;55996;49.546;7.400;2022-12-01T00:06:01;9.50;;;7.90;;
68947;SDS011;55996;49.546;7.400;2022-12-01T00:08:27;9.57;;;8.00;;
68947;SDS011;55996;49.546;7.400;2022-12-01T00:10:53;8.70;;;7.10;;
68947;SDS011;55996;49.546;7.400;2022-12-01T00:13:18;8.10;;;6.87;;
68947;SDS011;55996;49.546;7.400;2022-12-01T00:15:44;11.03;;;7.53;;
68947;SDS011;55996;49.546;7.400;2022-12-01T00:18:09;9.57;;;6.97;;
68947;SDS011;55996;49.546;7.400;2022-12-01T00:20:35;8.97;;;7.50;;
68947;SDS011;55996;49.546;7.400;2022-12-01T00:23:01;8.60;;;6.87;;
68947;SDS011;55996;49.546;7.400;2022-12-01T00:25:26;9.43;;;7.67;;
68947;SDS011;55996;49.546;7.400;2022-12-01T00:27:53;8.60;;;6.97;;
68947;SDS011;55996;49.546;7.400;2022-12-01T00:30:19;8.93;;;7.63;;
68947;SDS011;55996;49.546;7.400;2022-12-01T00:32:46;9.33;;;7.10;;
68947;SDS011;55996;49.546;7.400;2022-12-01T00:35:12;9.77;;;7.27;;
68947;SDS011;55996;49.546;7.400;2022-12-01T00:37:39;12.37;;;7.47;;
68947;SDS011;55996;49.546;7.400;2022-12-01T00:40:05;8.33;;;7.43;;
68947;SDS011;55996;49.546;7.400;2022-12-01T00:42:31;6.80;;;6.07;;
68947;SDS011;55996;49.546;7.400;2022-12-01T00:44:57;8.63;;;7.00;;
68947;SDS011;55996;49.546;7.400;2022-12-01T00:47:22;8.93;;;7.03;;
68947;SDS011;55996;49.546;7.400;2022-12-01T00:49:48;8.30;;;7.03;;
68947;SDS011;55996;49.546;7.400;2022-12-01T00:52:14;8.23;;;6.57;;
68947;SDS011;55996;49.546;7.400;2022-12-01T00:54:41;7.23;;;6.37;;
68947;SDS011;55996;49.546;7.400;2022-12-01T00:57:07;8.07;;;6.50;;
68947;SDS011;55996;49.546;7.400;2022-12-01T00:59:32;6.70;;;6.00;;
68947;SDS011;55996;49.546;7.400;2022-12-01T01:01:59;7.83;;;6.80;;
68947;SDS011;55996;49.546;7.400;2022-12-01T01:04:24;7.47;;;5.97;;
68947;SDS011;55996;49.546;7.400;2022-12-01T01:06:49;7.50;;;6.17;;
68947;SDS011;55996;49.546;7.400;2022-12-01T01:09:15;6.20;;;5.60;;
68947;SDS011;55996;49.546;7.400;2022-12-01T01:11:41;6.63;;;5.37;;
68947;SDS011;55996;49.546;7.400;2022-12-01T01:14:06;6.70;;;5.73;;
68947;SDS011;55996;49.546;7.400;2022-12-01T01:16:32;7.10;;;5.20;;
68947;SDS011;55996;49.546;7.400;2022-12-01T01:18:58;5.23;;;4.73;;
68947;SDS011;55996;49.546;7.400;2022-12-01T01:21:24;4.97;;;4.40;;
68947;SDS011;55996;49.546;7.400;2022-12-01T01:23:50;5.40;;;4.47;;
68947;SDS011;55996;49.546;7.400;2022-12-01T01:26:21;4.77;;;4.27;;
68947;SDS011;55996;49.546;7.400;2022-12-01T01:28:58;5.43;;;4.80;;
68947;SDS011;55996;49.546;7.400;2022-12-01T01:31:26;6.10;;;4.30;;
68947;SDS011;55996;49.546;7.400;2022-12-01T01:33:54;5.17;;;4.67;;
68947;SDS011;55996;49.546;7.400;2022-12-01T01:36:20;6.43;;;5.33;;
68947;SDS011;55996;49.546;7.400;2022-12-01T01:38:46;6.47;;;5.60;;
68947;SDS011;55996;49.546;7.400;2022-12-01T01:41:12;5.97;;;5.23;;
68947;SDS011;55996;49.546;7.400;2022-12-01T01:43:51;6.27;;;5.23;;
68947;SDS011;55996;49.546;7.400;2022-12-01T01:48:49;8.63;;;5.93;;
68947;SDS011;55996;49.546;7.400;2022-12-01T01:52:01;6.93;;;6.20;;
68947;SDS011;55996;49.546;7.400;2022-12-01T01:56:47;6.77;;;6.00;;
68947;SDS011;55996;49.546;7.400;2022-12-01T01:59:15;7.43;;;6.10;;
68947;SDS011;55996;49.546;7.400;2022-12-01T02:01:46;7.53;;;6.33;;
68947;SDS011;55996;49.546;7.400;2022-12-01T02:04:16;7.27;;;6.10;;
68947;SDS011;55996;49.546;7.400;2022-12-01T02:06:43;7.43;;;6.30;;
68947;SDS011;55996;49.546;7.400;2022-12-01T02:09:10;9.80;;;5.80;;
68947;SDS011;55996;49.546;7.400;2022-12-01T02:27:56;8.57;;;6.50;;
68947;SDS011;55996;49.546;7.400;2022-12-01T02:31:30;7.20;;;6.50;;
68947;SDS011;55996;49.546;7.400;2022-12-01T02:33:37;7.83;;;7.00;;
68947;SDS011;55996;49.546;7.400;2022-12-01T02:36:14;6.37;;;5.77;;
68947;SDS011;55996;49.546;7.400;2022-12-01T02:38:47;6.60;;;5.90;;
68947;SDS011;55996;49.546;7.400;2022-12-01T02:41:38;6.83;;;6.13;;
68947;SDS011;55996;49.546;7.400;2022-12-01T02:44:09;8.53;;;6.70;;
68947;SDS011;55996;49.546;7.400;2022-12-01T02:46:47;6.77;;;6.07;;
68947;SDS011;55996;49.546;7.400;2022-12-01T02:49:19;5.90;;;5.30;;
68947;SDS011;55996;49.546;7.400;2022-12-01T02:51:50;7.73;;;5.80;;
68947;SDS011;55996;49.546;7.400;2022-12-01T02:54:18;6.67;;;5.97;;
68947;SDS011;55996;49.546;7.400;2022-12-01T02:56:45;6.97;;;6.27;;
68947;SDS011;55996;49.546;7.400;2022-12-01T02:59:11;6.10;;;5.50;;
68947;SDS011;55996;49.546;7.400;2022-12-01T03:17:46;6.77;;;5.37;;
68947;SDS011;55996;49.546;7.400;2022-12-01T03:22:51;7.00;;;6.10;;
68947;SDS011;55996;49.546;7.400;2022-12-01T03:25:21;8.20;;;6.33;;
68947;SDS011;55996;49.546;7.400;2022-12-01T03:27:50;6.40;;;5.67;;
68947;SDS011;55996;49.546;7.400;2022-12-01T03:30:21;6.47;;;5.83;;
68947;SDS011;55996;49.546;7.400;2022-12-01T03:32:50;6.17;;;5.40;;
68947;SDS011;55996;49.546;7.400;2022-12-01T03:35:22;6.80;;;5.60;;
68947;SDS011;55996;49.546;7.400;2022-12-01T03:37:58;5.87;;;5.10;;
68947;SDS011;55996;49.546;7.400;2022-12-01T03:40:29;5.97;;;5.27;;
68947;SDS011;55996;49.546;7.400;2022-12-01T03:42:58;5.63;;;4.73;;
68947;SDS011;55996;49.546;7.400;2022-12-01T03:45:33;5.97;;;5.10;;
68947;SDS011;55996;49.546;7.400;2022-12-01T03:48:08;6.10;;;4.87;;
68947;SDS011;55996;49.546;7.400;2022-12-01T03:50:55;5.10;;;4.60;;
68947;SDS011;55996;49.546;7.400;2022-12-01T03:53:23;5.97;;;4.53;;
68947;SDS011;55996;49.546;7.400;2022-12-01T03:55:55;4.53;;;4.07;;
68947;SDS011;55996;49.546;7.400;2022-12-01T03:58:27;4.80;;;4.40;;
68947;SDS011;55996;49.546;7.400;2022-12-01T04:00:58;4.43;;;4.03;;
68947;SDS011;55996;49.546;7.400;2022-12-01T04:03:26;5.60;;;4.60;;
68947;SDS011;55996;49.546;7.400;2022-12-01T04:05:52;4.60;;;4.20;;
68947;SDS011;55996;49.546;7.400;2022-12-01T04:08:18;5.13;;;4.63;;
68947;SDS011;55996;49.546;7.400;2022-12-01T04:10:43;5.43;;;4.83;;
68947;SDS011;55996;49.546;7.400;2022-12-01T04:13:09;5.47;;;4.97;;
68947;SDS011;55996;49.546;7.400;2022-12-01T04:15:46;4.47;;;4.07;;
68947;SDS011;55996;49.546;7.400;2022-12-01T04:18:15;5.43;;;4.33;;
68947;SDS011;55996;49.546;7.400;2022-12-01T04:20:41;5.20;;;4.53;;
68947;SDS011;55996;49.546;7.400;2022-12-01T04:23:07;4.43;;;4.03;;
68947;SDS011;55996;49.546;7.400;2022-12-01T04:25:33;6.40;;;4.47;;
68947;SDS011;55996;49.546;7.400;2022-12-01T04:27:59;4.67;;;4.27;;
68947;SDS011;55996;49.546;7.400;2022-12-01T04:30:24;4.33;;;3.93;;
68947;SDS011;55996;49.546;7.400;2022-12-01T04:32:49;4.43;;;4.03;;
68947;SDS011;55996;49.546;7.400;2022-12-01T04:35:15;5.57;;;4.03;;
68947;SDS011;55996;49.546;7.400;2022-12-01T04:37:40;4.80;;;3.97;;
68947;SDS011;55996;49.546;7.400;2022-12-01T04:40:06;5.87;;;4.20;;
68947;SDS011;55996;49.546;7.400;2022-12-01T04:42:32;3.97;;;3.57;;
68947;SDS011;55996;49.546;7.400;2022-12-01T04:44:58;4.50;;;3.87;;
68947;SDS011;55996;49.546;7.400;2022-12-01T04:47:23;4.30;;;3.90;;
68947;SDS011;55996;49.546;7.400;2022-12-01T04:49:49;4.40;;;3.73;;
68947;SDS011;55996;49.546;7.400;2022-12-01T04:52:14;3.90;;;3.53;;
68947;SDS011;55996;49.546;7.400;2022-12-01T04:54:39;4.13;;;3.73;;
68947;SDS011;55996;49.546;7.400;2022-12-01T04:57:05;3.70;;;3.40;;
68947;SDS011;55996;49.546;7.400;2022-12-01T04:59:30;3.27;;;2.97;;
68947;SDS011;55996;49.546;7.400;2022-12-01T05:01:56;3.33;;;3.03;;
68947;SDS011;55996;49.546;7.400;2022-12-01T05:04:21;2.43;;;2.23;;
68947;SDS011;55996;49.546;7.400;2022-12-01T05:06:46;3.10;;;2.80;;
68947;SDS011;55996;49.546;7.400;2022-12-01T05:09:13;2.67;;;2.37;;
68947;SDS011;55996;49.546;7.400;2022-12-01T05:11:39;3.13;;;2.77;;
68947;SDS011;55996;49.546;7.400;2022-12-01T05:14:05;2.67;;;2.47;;
68947;SDS011;55996;49.546;7.400;2022-12-01T05:16:31;3.00;;;2.77;;
68947;SDS011;55996;49.546;7.400;2022-12-01T05:18:58;5.03;;;3.40;;
68947;SDS011;55996;49.546;7.400;2022-12-01T05:21:45;3.23;;;2.93;;
68947;SDS011;55996;49.546;7.400;2022-12-01T05:24:11;2.73;;;2.53;;
68947;SDS011;55996;49.546;7.400;2022-12-01T05:26:38;3.33;;;2.60;;
68947;SDS011;55996;49.546;7.400;2022-12-01T05:29:05;3.10;;;2.83;;
68947;SDS011;55996;49.546;7.400;2022-12-01T05:31:30;3.30;;;3.00;;
68947;SDS011;55996;49.546;7.400;2022-12-01T05:33:56;3.17;;;2.80;;
68947;SDS011;55996;49.546;7.400;2022-12-01T05:36:21;3.00;;;2.80;;
68947;SDS011;55996;49.546;7.400;2022-12-01T05:38:47;4.10;;;2.47;;
68947;SDS011;55996;49.546;7.400;2022-12-01T05:41:13;3.23;;;2.60;;
68947;SDS011;55996;49.546;7.400;2022-12-01T05:43:38;3.63;;;2.90;;
68947;SDS011;55996;49.546;7.400;2022-12-01T05:46:04;3.37;;;3.07;;
68947;SDS011;55996;49.546;7.400;2022-12-01T05:48:30;4.23;;;2.60;;
68947;SDS011;55996;49.546;7.400;2022-12-01T05:50:55;3.40;;;3.10;;
68947;SDS011;55996;49.546;7.400;2022-12-01T05:53:21;3.00;;;2.77;;
68947;SDS011;55996;49.546;7.400;2022-12-01T05:55:50;4.07;;;3.60;;
68947;SDS011;55996;49.546;7.400;2022-12-01T05:58:20;4.50;;;4.03;;
68947;SDS011;55996;49.546;7.400;2022-12-01T06:00:46;4.27;;;3.60;;
68947;SDS011;55996;49.546;7.400;2022-12-01T06:03:11;5.20;;;4.07;;
68947;SDS011;55996;49.546;7.400;2022-12-01T06:05:37;4.83;;;4.33;;
68947;SDS011;55996;49.546;7.400;2022-12-01T06:08:03;6.77;;;4.90;;
68947;SDS011;55996;49.546;7.400;2022-12-01T06:10:29;6.67;;;5.20;;
68947;SDS011;55996;49.546;7.400;2022-12-01T06:12:54;5.90;;;5.30;;
68947;SDS011;55996;49.546;7.400;2022-12-01T06:15:19;7.00;;;5.43;;
68947;SDS011;55996;49.546;7.400;2022-12-01T06:17:45;7.17;;;6.30;;
68947;SDS011;55996;49.546;7.400;2022-12-01T06:20:10;8.13;;;6.10;;
68947;SDS011;55996;49.546;7.400;2022-12-01T06:22:36;8.07;;;6.73;;
68947;SDS011;55996;49.546;7.400;2022-12-01T06:25:02;9.60;;;6.37;;
68947;SDS011;55996;49.546;7.400;2022-12-01T06:27:28;9.63;;;6.93;;
68947;SDS011;55996;49.546;7.400;2022-12-01T06:29:53;9.60;;;7.80;;
68947;SDS011;55996;49.546;7.400;2022-12-01T06:32:18;9.47;;;7.27;;
68947;SDS011;55996;49.546;7.400;2022-12-01T06:34:44;9.57;;;7.27;;
68947;SDS011;55996;49.546;7.400;2022-12-01T06:37:10;10.23;;;7.07;;
68947;SDS011;55996;49.546;7.400;2022-12-01T06:39:36;10.60;;;8.00;;
68947;SDS011;55996;49.546;7.400;2022-12-01T06:42:01;11.33;;;7.93;;
68947;SDS011;55996;49.546;7.400;2022-12-01T06:44:27;11.37;;;8.57;;
68947;SDS011;55996;49.546;7.400;2022-12-01T06:46:52;11.27;;;8.60;;
68947;SDS011;55996;49.546;7.400;2022-12-01T06:49:18;10.60;;;7.77;;
68947;SDS011;55996;49.546;7.400;2022-12-01T06:51:44;11.80;;;8.07;;
68947;SDS011;55996;49.546;7.400;2022-12-01T06:54:10;11.50;;;8.17;;
68947;SDS011;55996;49.546;7.400;2022-12-01T06:56:36;11.30;;;8.00;;
68947;SDS011;55996;49.546;7.400;2022-12-01T06:59:02;13.53;;;8.80;;
68947;SDS011;55996;49.546;7.400;2022-12-01T07:01:27;10.77;;;8.50;;
68947;SDS011;55996;49.546;7.400;2022-12-01T07:03:53;14.50;;;9.77;;
68947;SDS011;55996;49.546;7.400;2022-12-01T07:06:19;13.80;;;10.30;;
68947;SDS011;55996;49.546;7.400;2022-12-01T07:08:44;14.93;;;9.50;;
68947;SDS011;55996;49.546;7.400;2022-12-01T07:11:11;15.93;;;10.47;;
68947;SDS011;55996;49.546;7.400;2022-12-01T07:13:38;14.80;;;10.30;;
68947;SDS011;55996;49.546;7.400;2022-12-01T07:16:05;13.90;;;10.13;;
68947;SDS011;55996;49.546;7.400;2022-12-01T07:18:32;15.50;;;10.20;;
68947;SDS011;55996;49.546;7.400;2022-12-01T07:21:01;14.67;;;10.47;;
68947;SDS011;55996;49.546;7.400;2022-12-01T07:23:28;15.37;;;10.80;;
68947;SDS011;55996;49.546;7.400;2022-12-01T07:25:58;17.27;;;12.17;;
68947;SDS011;55996;49.546;7.400;2022-12-01T07:28:24;19.00;;;12.27;;
68947;SDS011;55996;49.546;7.400;2022-12-01T07:30:49;16.17;;;11.23;;
68947;SDS011;55996;49.546;7.400;2022-12-01T07:33:14;18.97;;;13.87;;
68947;SDS011;55996;49.546;7.400;2022-12-01T07:35:40;19.87;;;13.10;;
68947;SDS011;55996;49.546;7.400;2022-12-01T07:38:05;20.73;;;13.23;;
68947;SDS011;55996;49.546;7.400;2022-12-01T07:40:31;18.50;;;12.27;;
68947;SDS011;55996;49.546;7.400;2022-12-01T07:42:56;19.10;;;13.10;;
68947;SDS011;55996;49.546;7.400;2022-12-01T07:45:21;19.43;;;12.77;;
68947;SDS011;55996;49.546;7.400;2022-12-01T07:47:47;17.50;;;12.57;;
68947;SDS011;55996;49.546;7.400;2022-12-01T07:50:17;18.60;;;12.77;;
68947;SDS011;55996;49.546;7.400;2022-12-01T07:52:42;19.27;;;13.43;;
68947;SDS011;55996;49.546;7.400;2022-12-01T07:55:08;19.63;;;12.77;;
68947;SDS011;55996;49.546;7.400;2022-12-01T07:57:34;19.70;;;13.10;;
68947;SDS011;55996;49.546;7.400;2022-12-01T07:59:59;21.03;;;13.27;;
68947;SDS011;55996;49.546;7.400;2022-12-01T08:02:25;19.43;;;13.10;;
68947;SDS011;55996;49.546;7.400;2022-12-01T08:04:50;19.13;;;13.47;;
68947;SDS011;55996;49.546;7.400;2022-12-01T08:07:16;19.13;;;12.87;;
68947;SDS011;55996;49.546;7.400;2022-12-01T08:09:41;18.07;;;12.93;;
68947;SDS011;55996;49.546;7.400;2022-12-01T08:12:08;18.47;;;12.57;;
68947;SDS011;55996;49.546;7.400;2022-12-01T08:14:34;18.67;;;13.33;;
68947;SDS011;55996;49.546;7.400;2022-12-01T08:16:59;17.33;;;12.37;;
68947;SDS011;55996;49.546;7.400;2022-12-01T08:19:25;19.93;;;13.77;;
68947;SDS011;55996;49.546;7.400;2022-12-01T08:21:51;23.23;;;14.40;;
68947;SDS011;55996;49.546;7.400;2022-12-01T08:24:17;17.33;;;13.10;;
68947;SDS011;55996;49.546;7.400;2022-12-01T08:26:42;18.77;;;13.50;;
68947;SDS011;55996;49.546;7.400;2022-12-01T08:29:07;17.73;;;13.23;;
68947;SDS011;55996;49.546;7.400;2022-12-01T08:31:33;23.83;;;15.70;;
68947;SDS011;55996;49.546;7.400;2022-12-01T08:34:03;20.80;;;15.00;;
68947;SDS011;55996;49.546;7.400;2022-12-01T08:36:30;25.33;;;15.87;;
68947;SDS011;55996;49.546;7.400;2022-12-01T08:38:56;25.63;;;17.20;;
68947;SDS011;55996;49.546;7.400;2022-12-01T08:41:22;22.27;;;15.17;;
68947;SDS011;55996;49.546;7.400;2022-12-01T08:43:48;22.73;;;15.33;;
68947;SDS011;55996;49.546;7.400;2022-12-01T08:46:14;22.87;;;15.67;;
68947;SDS011;55996;49.546;7.400;2022-12-01T08:48:40;22.93;;;15.93;;
68947;SDS011;55996;49.546;7.400;2022-12-01T08:51:06;23.43;;;15.90;;
68947;SDS011;55996;49.546;7.400;2022-12-01T08:53:34;24.23;;;16.90;;
68947;SDS011;55996;49.546;7.400;2022-12-01T08:56:03;23.53;;;16.30;;
68947;SDS011;55996;49.546;7.400;2022-12-01T08:58:30;22.43;;;15.13;;
68947;SDS011;55996;49.546;7.400;2022-12-01T09:01:00;26.63;;;16.57;;
68947;SDS011;55996;49.546;7.400;2022-12-01T09:03:31;23.67;;;15.77;;
68947;SDS011;55996;49.546;7.400;2022-12-01T09:06:01;24.83;;;16.73;;
68947;SDS011;55996;49.546;7.400;2022-12-01T09:08:31;24.13;;;15.67;;
68947;SDS011;55996;49.546;7.400;2022-12-01T09:10:56;24.40;;;15.53;;
68947;SDS011;55996;49.546;7.400;2022-12-01T09:13:23;23.80;;;14.87;;
68947;SDS011;55996;49.546;7.400;2022-12-01T09:15:59;22.23;;;15.93;;
68947;SDS011;55996;49.546;7.400;2022-12-01T09:18:27;20.63;;;15.03;;
68947;SDS011;55996;49.546;7.400;2022-12-01T09:20:52;23.90;;;17.23;;
68947;SDS011;55996;49.546;7.400;2022-12-01T09:23:18;20.83;;;14.77;;
68947;SDS011;55996;49.546;7.400;2022-12-01T09:25:44;23.23;;;15.77;;
68947;SDS011;55996;49.546;7.400;2022-12-01T09:28:09;22.43;;;15.23;;
68947;SDS011;55996;49.546;7.400;2022-12-01T09:30:35;27.10;;;18.17;;
68947;SDS011;55996;49.546;7.400;2022-12-01T09:33:01;26.87;;;16.07;;
68947;SDS011;55996;49.546;7.400;2022-12-01T09:35:26;21.63;;;15.93;;
68947;SDS011;55996;49.546;7.400;2022-12-01T09:37:54;20.70;;;14.67;;
68947;SDS011;55996;49.546;7.400;2022-12-01T09:40:19;22.77;;;15.23;;
68947;SDS011;55996;49.546;7.400;2022-12-01T09:42:46;24.63;;;16.90;;
68947;SDS011;55996;49.546;7.400;2022-12-01T09:45:23;27.97;;;17.00;;
68947;SDS011;55996;49.546;7.400;2022-12-01T09:47:52;22.10;;;16.10;;
68947;SDS011;55996;49.546;7.400;2022-12-01T09:50:21;23.67;;;15.53;;
68947;SDS011;55996;49.546;7.400;2022-12-01T09:55:26;23.20;;;16.50;;
68947;SDS011;55996;49.546;7.400;2022-12-01T09:57:55;21.40;;;14.57;;
68947;SDS011;55996;49.546;7.400;2022-12-01T10:00:25;21.43;;;15.00;;
68947;SDS011;55996;49.546;7.400;2022-12-01T10:05:43;23.47;;;16.23;;
68947;SDS011;55996;49.546;7.400;2022-12-01T10:08:23;20.60;;;14.50;;
68947;SDS011;55996;49.546;7.400;2022-12-01T10:10:51;22.20;;;15.43;;
68947;SDS011;55996;49.546;7.400;2022-12-01T10:13:22;22.37;;;15.87;;
68947;SDS011;55996;49.546;7.400;2022-12-01T10:21:07;22.13;;;14.90;;
68947;SDS011;55996;49.546;7.400;2022-12-01T10:26:24;23.47;;;16.70;;
68947;SDS011;55996;49.546;7.400;2022-12-01T10:32:04;24.00;;;17.17;;
68947;SDS011;55996;49.546;7.400;2022-12-01T10:34:42;25.97;;;17.23;;
68947;SDS011;55996;49.546;7.400;2022-12-01T10:37:24;27.30;;;18.97;;
68947;SDS011;55996;49.546;7.400;2022-12-01T10:39:51;22.90;;;16.60;;
68947;SDS011;55996;49.546;7.400;2022-12-01T10:45:15;26.03;;;16.53;;
68947;SDS011;55996;49.546;7.400;2022-12-01T10:50:43;26.17;;;17.53;;
68947;SDS011;55996;49.546;7.400;2022-12-01T10:56:11;23.20;;;15.57;;
68947;SDS011;55996;49.546;7.400;2022-12-01T10:58:51;24.40;;;16.70;;
68947;SDS011;55996;49.546;7.400;2022-12-01T11:06:48;23.60;;;16.37;;
68947;SDS011;55996;49.546;7.400;2022-12-01T11:09:19;26.73;;;16.93;;
68947;SDS011;55996;49.546;7.400;2022-12-01T11:11:57;27.57;;;17.57;;
68947;SDS011;55996;49.546;7.400;2022-12-01T11:14:42;24.03;;;16.73;;
68947;SDS011;55996;49.546;7.400;2022-12-01T11:17:55;28.07;;;18.07;;
68947;SDS011;55996;49.546;7.400;2022-12-01T11:26:02;25.77;;;17.43;;
68947;SDS011;55996;49.546;7.400;2022-12-01T11:28:33;25.77;;;17.60;;
68947;SDS011;55996;49.546;7.400;2022-12-01T11:31:02;28.27;;;19.33;;
68947;SDS011;55996;49.546;7.400;2022-12-01T11:33:31;29.77;;;19.63;;
68947;SDS011;55996;49.546;7.400;2022-12-01T11:36:06;29.53;;;19.50;;
68947;SDS011;55996;49.546;7.400;2022-12-01T11:38:33;30.40;;;19.70;;
68947;SDS011;55996;49.546;7.400;2022-12-01T11:40:58;29.77;;;18.97;;
68947;SDS011;55996;49.546;7.400;2022-12-01T11:43:27;28.27;;;17.87;;
68947;SDS011;55996;49.546;7.400;2022-12-01T11:46:04;30.30;;;18.10;;
68947;SDS011;55996;49.546;7.400;2022-12-01T11:48:32;27.67;;;18.83;;
68947;SDS011;55996;49.546;7.400;2022-12-01T11:53:38;26.93;;;17.73;;
68947;SDS011;55996;49.546;7.400;2022-12-01T11:56:26;29.10;;;18.33;;
68947;SDS011;55996;49.546;7.400;2022-12-01T11:59:00;27.17;;;18.13;;
68947;SDS011;55996;49.546;7.400;2022-12-01T12:11:59;27.47;;;17.17;;
68947;SDS011;55996;49.546;7.400;2022-12-01T12:14:58;25.93;;;16.93;;
68947;SDS011;55996;49.546;7.400;2022-12-01T12:17:43;26.37;;;16.80;;
68947;SDS011;55996;49.546;7.400;2022-12-01T12:20:32;27.33;;;17.07;;
68947;SDS011;55996;49.546;7.400;2022-12-01T12:25:58;23.47;;;16.97;;
68947;SDS011;55996;49.546;7.400;2022-12-01T12:40:21;25.60;;;17.30;;
68947;SDS011;55996;49.546;7.400;2022-12-01T12:56:44;24.27;;;16.30;;
68947;SDS011;55996;49.546;7.400;2022-12-01T12:59:19;25.73;;;16.33;;
68947;SDS011;55996;49.546;7.400;2022-12-01T13:01:48;25.53;;;16.47;;
68947;SDS011;55996;49.546;7.400;2022-12-01T13:04:22;26.70;;;16.67;;
68947;SDS011;55996;49.546;7.400;2022-12-01T13:07:00;25.83;;;16.20;;
68947;SDS011;55996;49.546;7.400;2022-12-01T13:12:16;26.63;;;16.90;;
68947;SDS011;55996;49.546;7.400;2022-12-01T13:17:45;23.90;;;16.30;;
68947;SDS011;55996;49.546;7.400;2022-12-01T13:20:16;22.37;;;15.80;;
68947;SDS011;55996;49.546;7.400;2022-12-01T13:22:46;22.03;;;15.33;;
68947;SDS011;55996;49.546;7.400;2022-12-01T13:25:20;23.47;;;15.80;;
68947;SDS011;55996;49.546;7.400;2022-12-01T13:27:50;25.20;;;15.30;;
68947;SDS011;55996;49.546;7.400;2022-12-01T13:30:18;23.33;;;15.70;;
68947;SDS011;55996;49.546;7.400;2022-12-01T13:32:45;22.37;;;15.87;;
68947;SDS011;55996;49.546;7.400;2022-12-01T13:41:11;23.60;;;15.47;;
68947;SDS011;55996;49.546;7.400;2022-12-01T13:43:43;23.17;;;15.73;;
68947;SDS011;55996;49.546;7.400;2022-12-01T13:46:20;22.43;;;14.63;;
68947;SDS011;55996;49.546;7.400;2022-12-01T13:51:12;22.93;;;14.90;;
68947;SDS011;55996;49.546;7.400;2022-12-01T13:53:38;22.50;;;15.47;;
68947;SDS011;55996;49.546;7.400;2022-12-01T13:56:24;21.80;;;15.17;;
68947;SDS011;55996;49.546;7.400;2022-12-01T13:58:58;22.90;;;14.97;;
68947;SDS011;55996;49.546;7.400;2022-12-01T14:03:56;22.63;;;15.97;;
68947;SDS011;55996;49.546;7.400;2022-12-01T14:06:27;22.43;;;15.70;;
68947;SDS011;55996;49.546;7.400;2022-12-01T14:09:25;25.20;;;16.60;;
68947;SDS011;55996;49.546;7.400;2022-12-01T14:11:56;24.50;;;15.90;;
68947;SDS011;55996;49.546;7.400;2022-12-01T14:14:25;24.63;;;16.30;;
68947;SDS011;55996;49.546;7.400;2022-12-01T14:16:54;26.43;;;16.67;;
68947;SDS011;55996;49.546;7.400;2022-12-01T14:22:42;24.83;;;15.13;;
68947;SDS011;55996;49.546;7.400;2022-12-01T14:27:44;25.83;;;17.37;;
68947;SDS011;55996;49.546;7.400;2022-12-01T14:38:41;25.53;;;16.90;;
68947;SDS011;55996;49.546;7.400;2022-12-01T14:41:19;23.70;;;16.03;;
68947;SDS011;55996;49.546;7.400;2022-12-01T14:43:47;24.30;;;16.27;;
68947;SDS011;55996;49.546;7.400;2022-12-01T14:46:30;24.00;;;15.40;;
68947;SDS011;55996;49.546;7.400;2022-12-01T14:49:03;24.40;;;15.53;;
68947;SDS011;55996;49.546;7.400;2022-12-01T14:51:34;25.50;;;15.70;;
68947;SDS011;55996;49.546;7.400;2022-12-01T14:54:01;27.63;;;16.30;;
68947;SDS011;55996;49.546;7.400;2022-12-01T14:56:33;26.57;;;15.80;;
68947;SDS011;55996;49.546;7.400;2022-12-01T14:59:13;25.00;;;16.90;;
68947;SDS011;55996;49.546;7.400;2022-12-01T15:01:46;23.43;;;15.73;;
68947;SDS011;55996;49.546;7.400;2022-12-01T15:04:14;24.10;;;16.57;;
68947;SDS011;55996;49.546;7.400;2022-12-01T15:06:40;25.30;;;16.30;;
68947;SDS011;55996;49.546;7.400;2022-12-01T15:09:13;27.03;;;16.90;;
68947;SDS011;55996;49.546;7.400;2022-12-01T15:14:28;26.60;;;17.73;;
68947;SDS011;55996;49.546;7.400;2022-12-01T15:16:54;26.10;;;18.53;;
68947;SDS011;55996;49.546;7.400;2022-12-01T15:19:21;30.80;;;18.40;;
68947;SDS011;55996;49.546;7.400;2022-12-01T15:21:47;24.63;;;17.37;;
68947;SDS011;55996;49.546;7.400;2022-12-01T15:24:23;25.17;;;16.63;;
68947;SDS011;55996;49.546;7.400;2022-12-01T15:26:51;25.13;;;17.00;;
68947;SDS011;55996;49.546;7.400;2022-12-01T15:31:59;23.97;;;16.03;;
68947;SDS011;55996;49.546;7.400;2022-12-01T15:34:40;24.87;;;16.53;;
68947;SDS011;55996;49.546;7.400;2022-12-01T15:37:17;27.07;;;16.80;;
68947;SDS011;55996;49.546;7.400;2022-12-01T15:39:53;25.57;;;16.77;;
68947;SDS011;55996;49.546;7.400;2022-12-01T15:47:48;25.17;;;16.63;;
68947;SDS011;55996;49.546;7.400;2022-12-01T15:50:25;25.17;;;16.77;;
68947;SDS011;55996;49.546;7.400;2022-12-01T15:52:55;30.57;;;17.97;;
68947;SDS011;55996;49.546;7.400;2022-12-01T15:55:32;28.07;;;16.37;;
68947;SDS011;55996;49.546;7.400;2022-12-01T15:58:00;26.63;;;17.97;;
68947;SDS011;55996;49.546;7.400;2022-12-01T16:00:30;27.57;;;17.90;;
68947;SDS011;55996;49.546;7.400;2022-12-01T16:02:56;26.37;;;17.30;;
68947;SDS011;55996;49.546;7.400;2022-12-01T16:05:27;27.73;;;17.57;;
68947;SDS011;55996;49.546;7.400;2022-12-01T16:07:56;27.90;;;18.60;;
68947;SDS011;55996;49.546;7.400;2022-12-01T16:10:32;27.10;;;17.57;;
68947;SDS011;55996;49.546;7.400;2022-12-01T16:16:48;24.77;;;16.90;;
68947;SDS011;55996;49.546;7.400;2022-12-01T16:21:32;28.83;;;17.63;;
68947;SDS011;55996;49.546;7.400;2022-12-01T16:24:10;29.43;;;18.47;;
68947;SDS011;55996;49.546;7.400;2022-12-01T16:26:45;27.03;;;18.27;;
68947;SDS011;55996;49.546;7.400;2022-12-01T16:29:23;29.70;;;18.87;;
68947;SDS011;55996;49.546;7.400;2022-12-01T16:31:51;31.23;;;18.90;;
68947;SDS011;55996;49.546;7.400;2022-12-01T16:34:19;28.30;;;18.13;;
68947;SDS011;55996;49.546;7.400;2022-12-01T16:36:46;26.83;;;17.00;;
68947;SDS011;55996;49.546;7.400;2022-12-01T16:39:12;30.90;;;18.17;;
68947;SDS011;55996;49.546;7.400;2022-12-01T16:41:38;27.40;;;18.20;;
68947;SDS011;55996;49.546;7.400;2022-12-01T16:44:12;27.80;;;17.93;;
68947;SDS011;55996;49.546;7.400;2022-12-01T16:46:39;29.20;;;18.07;;
68947;SDS011;55996;49.546;7.400;2022-12-01T16:49:05;25.57;;;17.47;;
68947;SDS011;55996;49.546;7.400;2022-12-01T16:51:32;25.70;;;16.97;;
68947;SDS011;55996;49.546;7.400;2022-12-01T16:53:58;27.17;;;18.87;;
68947;SDS011;55996;49.546;7.400;2022-12-01T16:56:24;24.93;;;17.67;;
68947;SDS011;55996;49.546;7.400;2022-12-01T16:58:50;28.07;;;18.00;;
68947;SDS011;55996;49.546;7.400;2022-12-01T17:01:15;24.50;;;16.47;;
68947;SDS011;55996;49.546;7.400;2022-12-01T17:03:41;22.40;;;15.80;;
68947;SDS011;55996;49.546;7.400;2022-12-01T17:06:06;23.80;;;16.53;;
68947;SDS011;55996;49.546;7.400;2022-12-01T17:08:32;26.70;;;15.53;;
68947;SDS011;55996;49.546;7.400;2022-12-01T17:10:58;24.93;;;16.70;;
68947;SDS011;55996;49.546;7.400;2022-12-01T17:13:23;24.17;;;16.23;;
68947;SDS011;55996;49.546;7.400;2022-12-01T17:15:50;26.00;;;16.40;;
68947;SDS011;55996;49.546;7.400;2022-12-01T17:18:20;23.93;;;16.57;;
68947;SDS011;55996;49.546;7.400;2022-12-01T17:20:59;26.13;;;17.07;;
68947;SDS011;55996;49.546;7.400;2022-12-01T17:23:27;27.30;;;18.10;;
68947;SDS011;55996;49.546;7.400;2022-12-01T17:25:53;24.83;;;16.87;;
68947;SDS011;55996;49.546;7.400;2022-12-01T17:28:19;27.23;;;17.03;;
68947;SDS011;55996;49.546;7.400;2022-12-01T17:30:45;26.07;;;18.07;;